Zprávy METAR z letišť v České republice


LKPR - Praha Ruzyně, Česká republika
Aktualizováno: 27.11.2021 06:00
 
Teplota vzduchu: -2°C
Chlad větru: -7°C
Vítr: S 13 km/h
Rosný bod: -3°C
Vlhkost vzduchu: 93%
Tlak vzduchu: 992 hPa
Oblačnost: Partly Cloudy
Viditelnost: 10 km
Detaily oblačnosti: Partly Cloudy 1067 m
2021/11/27 05:00 LKPR 270500Z 18007KT 9999 SCT035 M02/M03 Q0992 NOSIG
LKTB - Brno Tuřany, Česká republika
Aktualizováno: 27.11.2021 06:00
 
Teplota vzduchu: -2°C
Vítr: ENE 6 km/h
Rosný bod: -3°C
Vlhkost vzduchu: 93%
Tlak vzduchu: 995 hPa
Stav počasí: Freezing Fog
Oblačnost: Partly Cloudy
Viditelnost: 0 km
Detaily oblačnosti: Partly Cloudy 30 m
2021/11/27 05:00 LKTB 270500Z 07003KT 0350 R27/0900U FZFG SCT001 M02/M03 Q0995 NOSIG
 
LKKV - Karlovy Vary, Česká republika
Aktualizováno: 27.11.2021 06:00
 
Teplota vzduchu: -1°C
Chlad větru: -4°C
Vítr: SSE 7 km/h
Rosný bod: -3°C
Vlhkost vzduchu: 86%
Tlak vzduchu: 989 hPa
Oblačnost: Mostly Cloudy
Viditelnost: 10 km
Detaily oblačnosti: Mostly Cloudy 335 m
Mostly Cloudy 1219 m
2021/11/27 05:00 LKKV 270500Z 15004KT 110V180 9999 BKN011 BKN040 M01/M03 Q0989
LKMT - Ostrava Mošnov, Česká republika
Aktualizováno: 27.11.2021 06:00
 
Teplota vzduchu: 1°C
Chlad větru: -3°C
Vítr: S 13 km/h
Rosný bod: 0°C
Vlhkost vzduchu: 93%
Tlak vzduchu: 994 hPa
Oblačnost: Overcast
Viditelnost: 10 km
Detaily oblačnosti: Mostly Cloudy 488 m
Overcast 1463 m
2021/11/27 05:00 LKMT 270500Z 19007KT 9999 BKN016 OVC048 01/M00 Q0994 NOSIG
 
LKPD - Pardubice, Česká republika
Aktualizováno: 27.11.2021 06:00
 
Teplota vzduchu: -4°C
Chlad větru: -7°C
Vítr: E 7 km/h
Rosný bod: -4°C
Vlhkost vzduchu: 100%
Tlak vzduchu: 993 hPa
Oblačnost: Partly Cloudy
Viditelnost: 8 km
2021/11/27 05:00 LKPD 270500Z 10004KT 8000 NSC M04/M04 Q0993 NOSIG RMK BLU BLU
LKKB - Praha Kbely, Česká republika
Aktualizováno: 27.11.2021 06:00
 
Teplota vzduchu: -2°C
Chlad větru: -6°C
Vítr: SSE 11 km/h
Rosný bod: -4°C
Vlhkost vzduchu: 86%
Tlak vzduchu: 992 hPa
Stav počasí: Clear
Viditelnost: greater than 10 km
2021/11/27 05:00 LKKB 270500Z 16006KT CAVOK M02/M04 Q0992 NOSIG
 
LKCV - Čáslav, Česká republika
Aktualizováno: 27.11.2021 06:00
 
Teplota vzduchu: -3°C
Chlad větru: -7°C
Vítr: SE 11 km/h
Rosný bod: -4°C
Vlhkost vzduchu: 93%
Tlak vzduchu: 993 hPa
Stav počasí: Clear
Viditelnost: greater than 10 km
2021/11/27 05:00 LKCV 270500Z 14006KT CAVOK M03/M04 Q0993 NOSIG RMK BLU BLU
LKNA - Náměšť n. Osl., Česká republika
Aktualizováno: 27.11.2021 06:00
 
Teplota vzduchu: -2°C
Vítr: varies 4 km/h
Rosný bod: -3°C
Vlhkost vzduchu: 93%
Tlak vzduchu: 993 hPa
Stav počasí: Clear
Viditelnost: greater than 10 km
2021/11/27 05:00 LKNA 270500Z VRB02KT CAVOK M02/M03 Q0993 NOSIG RMK BLU BLU
 
LKLN - Plzeň Líně, Česká republika
Aktualizováno: 27.11.2021 06:00
 
Teplota vzduchu: -2°C
Vítr: SW 6 km/h
Rosný bod: -3°C
Vlhkost vzduchu: 93%
Tlak vzduchu: 992 hPa
Oblačnost: Mostly Cloudy
Viditelnost: 10 km
Detaily oblačnosti: Mostly Cloudy 4572 m
Mostly Cloudy 5182 m
2021/11/27 05:00 LKLN 270500Z AUTO 22003KT 9999 BKN150 BKN170 M02/M03 Q0992
LKVO - Vodochody, Česká republika
Aktualizováno: 26.11.2021 15:00
Není aktuální
 
Teplota vzduchu: 3°C
Vítr: calm
Rosný bod: -1°C
Vlhkost vzduchu: 75%
Tlak vzduchu: 997 hPa
Oblačnost: Overcast
Viditelnost: 10 km
Detaily oblačnosti: Overcast 518 m
2021/11/26 14:00 LKVO 261400Z 00000KT 9999 OVC017 03/M01 Q0997

Metar display script od Saratoga-Weather.org
upravil a přeložil Miloš Jiřík